Darstellungsparameter: Aktuell verwendete Einstellungen:
Skalierung der Graphiken ... ?
xyx+y,   Skalierungsfaktor:      Skalierung: Modus: x, Faktor: 1
Darstellungszeitraum ... ?
Vom - - bis: - -   Zeitraum: 06.05.2019 - 05.06.2019
Min/Max/Avg-Anzeige ... ?
Zeige MMA aktuell
Zeige MMA Monat
Zeige MMA alles
Zeige --A aktuell
Zeige --A Monat
Zeige --A alles
Keine MMA-Anzeige
MMA:
Average (ber die Originaldaten)
MMA-Basis: 11.05.2019 - 13.06.2019
Quicknavigation für Darstellung... ?
Tage:      1T, 2T, 3T, 5T -1T -2T -3T -5T +1T +2T +3T +5T
Wochen: 1W, 2W, 3W -1W -2W -3W +1W +2W +3W
Monate: 1M, 3M, 6M -1M -3M -6M +1M +3M +6M
Jahre:    1J, 3J, 5J, 10J -1J -3J -5J -10J +1J +3J +5J +10J
Nutze für die Darstellung ... ?
Originaldaten oder ...
Mittelwerte Minima Maxima auf...
Stundenbasis Tagesbasis Wochenbasis
Monatsbasis Jahresbasis      Datenbasis: Mittelwerte auf Stundenbasis
Darstellen als:
Statistik (Auto) Statistik J:M      Darstellung:
Zur Graphik,    zurück zur Übersicht aller Sensoren.
 
Tabellarische Datenbersicht: ?
 
Sensor: Nr:Datum:Temp:Abs-Feuchte:Windchill:Wind:
Aussen-T/F 1 06-05-2019 00:00:00 6.11667 C 6.33 g/m*3 6.12 C 0.26667 km/h
2 06-05-2019 01:00:00 5.90833 C 6.32 g/m*3 5.91 C 2 km/h
3 06-05-2019 02:00:00 5.1 C 6.01 g/m*3 5.1 C 1.6 km/h
4 06-05-2019 03:00:00 4.25833 C 5.85 g/m*3 4.26 C 0.26667 km/h
5 06-05-2019 04:00:00 3.59167 C 5.65 g/m*3 3.59 C 0 km/h
6 06-05-2019 05:00:00 3.01667 C 5.5 g/m*3 3.02 C 0.4 km/h
7 06-05-2019 06:00:00 3.14167 C 5.63 g/m*3 3.14 C 2 km/h
8 06-05-2019 07:00:00 3.70833 C 5.86 g/m*3 3.71 C 4.81667 km/h
9 06-05-2019 08:00:00 4.56667 C 6.1 g/m*3 4.57 C 4 km/h
10 06-05-2019 09:00:00 6.31667 C 6.24 g/m*3 6.32 C 4.275 km/h
11 06-05-2019 10:00:00 8.01667 C 6.11 g/m*3 7.18 C 6.04167 km/h
12 06-05-2019 11:00:00 9.33333 C 6.01 g/m*3 9.33 C 4.275 km/h
13 06-05-2019 12:00:00 10.05 C 5.61 g/m*3 9.29 C 6.975 km/h
14 06-05-2019 13:00:00 10.95 C 5.6 g/m*3 9.96 C 8.86667 km/h
15 06-05-2019 14:00:00 11.24167 C 5.59 g/m*3 11.24 C 9.26667 km/h
16 06-05-2019 15:00:00 11.29167 C 5.83 g/m*3 11.29 C 9.15833 km/h
17 06-05-2019 16:00:00 11.01667 C 6.05 g/m*3 11.02 C 9.14167 km/h
18 06-05-2019 17:00:00 10.675 C 6 g/m*3 10.35 C 5.61667 km/h
19 06-05-2019 18:00:00 11.425 C 6.3 g/m*3 11.43 C 4.275 km/h
20 06-05-2019 19:00:00 10.75833 C 6.73 g/m*3 10.76 C 1.60833 km/h
21 06-05-2019 20:00:00 9.18333 C 6.73 g/m*3 9.18 C 3.48333 km/h
22 06-05-2019 21:00:00 8.26667 C 6.9 g/m*3 8.27 C 0.13333 km/h
23 06-05-2019 22:00:00 7.75 C 6.96 g/m*3 7.75 C 0.26667 km/h
24 06-05-2019 23:00:00 7.30833 C 6.86 g/m*3 7.31 C 0 km/h
25 07-05-2019 00:00:00 7.29167 C 6.99 g/m*3 7.29 C 0.26667 km/h
Sensor: Nr:Datum:Temp:Abs-Feuchte:Windchill:Wind:
Aussen-T/F 26 07-05-2019 01:00:00 7.04167 C 6.93 g/m*3 7.04 C 0 km/h
27 07-05-2019 02:00:00 6.7 C 6.84 g/m*3 6.7 C 0 km/h
28 07-05-2019 03:00:00 6.64167 C 6.81 g/m*3 6.64 C 0 km/h
29 07-05-2019 04:00:00 6.35 C 6.7 g/m*3 6.35 C 0 km/h
30 07-05-2019 05:00:00 6.16667 C 6.68 g/m*3 6.17 C 0 km/h
31 07-05-2019 06:00:00 5.85833 C 6.57 g/m*3 5.86 C 0 km/h
32 07-05-2019 07:00:00 6.38333 C 6.85 g/m*3 6.38 C 0 km/h
33 07-05-2019 08:00:00 7.30833 C 7.06 g/m*3 7.31 C 0.26667 km/h
34 07-05-2019 09:00:00 8.475 C 7.31 g/m*3 8.48 C 1.6 km/h
35 07-05-2019 10:00:00 9.60833 C 7.32 g/m*3 9.13 C 5.6 km/h
36 07-05-2019 11:00:00 10.575 C 6.99 g/m*3 10.58 C 4.53333 km/h
37 07-05-2019 12:00:00 11.88333 C 6.4 g/m*3 11.88 C 7.11667 km/h
38 07-05-2019 13:00:00 11.86667 C 6.2 g/m*3 11.87 C 6.14167 km/h
39 07-05-2019 14:00:00 12.76667 C 6.17 g/m*3 12.77 C 6.83333 km/h
40 07-05-2019 15:00:00 13.05833 C 5.99 g/m*3 13.06 C 9.81667 km/h
41 07-05-2019 16:00:00 14.13333 C 6.16 g/m*3 14.13 C 6.71667 km/h
42 07-05-2019 17:00:00 14.9 C 6.04 g/m*3 14.9 C 5.49167 km/h
43 07-05-2019 18:00:00 14.94167 C 5.88 g/m*3 14.94 C 5.75 km/h
44 07-05-2019 19:00:00 13.4 C 7.19 g/m*3 13.4 C 0.13333 km/h
45 07-05-2019 20:00:00 11.275 C 6.41 g/m*3 11.28 C 0.8 km/h
46 07-05-2019 21:00:00 9.01667 C 6.03 g/m*3 9.02 C 0 km/h
47 07-05-2019 22:00:00 7.98333 C 6.27 g/m*3 7.98 C 0 km/h
48 07-05-2019 23:00:00 6.93333 C 6.23 g/m*3 6.93 C 0 km/h
49 08-05-2019 00:00:00 6.325 C 6.15 g/m*3 6.33 C 0 km/h
50 08-05-2019 01:00:00 5.75 C 6.03 g/m*3 5.75 C 0 km/h
Sensor: Nr:Datum:Temp:Abs-Feuchte:Windchill:Wind:
Aussen-T/F 51 08-05-2019 02:00:00 5.15 C 5.97 g/m*3 5.15 C 0 km/h
52 08-05-2019 03:00:00 4.7 C 5.96 g/m*3 4.7 C 0 km/h
53 08-05-2019 04:00:00 4.95 C 6.16 g/m*3 4.95 C 0 km/h
54 08-05-2019 05:00:00 5.25 C 6.29 g/m*3 5.25 C 0 km/h
55 08-05-2019 06:00:00 5.49167 C 6.41 g/m*3 5.49 C 0 km/h
56 08-05-2019 07:00:00 6.21667 C 6.66 g/m*3 6.22 C 0.53333 km/h
57 08-05-2019 08:00:00 7.49167 C 7.03 g/m*3 7.49 C 2 km/h
58 08-05-2019 09:00:00 8.85 C 7.21 g/m*3 8.85 C 3.48333 km/h
59 08-05-2019 10:00:00 9.025 C 7.7 g/m*3 9.03 C 1.46667 km/h
60 08-05-2019 11:00:00 9.69167 C 8.24 g/m*3 9.69 C 0.8 km/h
61 08-05-2019 12:00:00 11.325 C 9.05 g/m*3 11.33 C 4.41667 km/h
62 08-05-2019 13:00:00 13.61667 C 9.77 g/m*3 13.62 C 5.89167 km/h
63 08-05-2019 14:00:00 14.7 C 9.91 g/m*3 14.7 C 5.875 km/h
64 08-05-2019 15:00:00 14.56667 C 9.86 g/m*3 14.57 C 5.35 km/h
65 08-05-2019 16:00:00 13.39167 C 10.08 g/m*3 13.39 C 5.35 km/h
66 08-05-2019 17:00:00 12.51667 C 10.05 g/m*3 12.52 C 3.06667 km/h
67 08-05-2019 18:00:00 12.5 C 10.22 g/m*3 12.5 C 2 km/h
68 08-05-2019 19:00:00 12.25833 C 10.13 g/m*3 12.26 C 0.13333 km/h
69 08-05-2019 20:00:00 11.71667 C 9.84 g/m*3 11.72 C 0.4 km/h
70 08-05-2019 21:00:00 10.95833 C 9.43 g/m*3 10.96 C 0.13333 km/h
71 08-05-2019 22:00:00 10.14167 C 9 g/m*3 10.14 C 1.6 km/h
72 08-05-2019 23:00:00 9.41667 C 8.56 g/m*3 9.42 C 2.53333 km/h
73 09-05-2019 00:00:00 8.78333 C 8.22 g/m*3 8.78 C 3.48333 km/h
74 09-05-2019 01:00:00 8.31667 C 7.99 g/m*3 8.32 C 1.6 km/h
75 09-05-2019 02:00:00 7.425 C 7.55 g/m*3 7.43 C 0.13333 km/h
Sensor: Nr:Datum:Temp:Abs-Feuchte:Windchill:Wind:
Aussen-T/F 76 09-05-2019 03:00:00 7.31667 C 7.57 g/m*3 7.32 C 0.26667 km/h
77 09-05-2019 04:00:00 7.75833 C 7.81 g/m*3 7.76 C 1.475 km/h
78 09-05-2019 05:00:00 7.80833 C 7.84 g/m*3 7.81 C 0 km/h
79 09-05-2019 06:00:00 7.46667 C 7.63 g/m*3 7.47 C 0 km/h
80 09-05-2019 07:00:00 8.7 C 8.33 g/m*3 8.7 C 0.13333 km/h
81 09-05-2019 08:00:00 9.9 C 8.72 g/m*3 9.9 C 2.4 km/h
82 09-05-2019 09:00:00 11.4 C 8.97 g/m*3 11.4 C 2.8 km/h
83 09-05-2019 10:00:00 11.6 C 9.17 g/m*3 11.6 C 5.475 km/h
84 09-05-2019 11:00:00 12.78333 C 9.4 g/m*3 12.78 C 6.56667 km/h
85 09-05-2019 12:00:00 13.21667 C 9.7 g/m*3 13.22 C 6.43333 km/h
86 09-05-2019 13:00:00 13.26667 C 9.67 g/m*3 13.27 C 8.60833 km/h
87 09-05-2019 14:00:00 13.60833 C 9.43 g/m*3 13.61 C 5.35 km/h
88 09-05-2019 15:00:00 13.43333 C 9.64 g/m*3 13.43 C 4.80833 km/h
89 09-05-2019 16:00:00 13.80833 C 9.68 g/m*3 13.81 C 4.4 km/h
90 09-05-2019 17:00:00 14.375 C 10.05 g/m*3 14.38 C 2.66667 km/h
91 09-05-2019 18:00:00 15.625 C 10.57 g/m*3 15.63 C 5.76667 km/h
92 09-05-2019 19:00:00 15.4 C 10.41 g/m*3 15.4 C 3.89167 km/h
93 09-05-2019 20:00:00 13.70833 C 10.14 g/m*3 13.71 C 0.93333 km/h
94 09-05-2019 21:00:00 11.66667 C 9.47 g/m*3 11.67 C 7.09167 km/h
95 09-05-2019 22:00:00 10.89167 C 9.36 g/m*3 10.89 C 1.86667 km/h
96 09-05-2019 23:00:00 10.76667 C 9.37 g/m*3 10.77 C 3.88333 km/h
97 10-05-2019 00:00:00 10.525 C 9.23 g/m*3 10.53 C 1.2 km/h
98 10-05-2019 01:00:00 9.51667 C 8.66 g/m*3 9.52 C 0.26667 km/h
99 10-05-2019 02:00:00 8.85833 C 8.34 g/m*3 8.86 C 0.13333 km/h
100 10-05-2019 03:00:00 8.16667 C 7.97 g/m*3 8.17 C 0 km/h
Sensor: Nr:Datum:Temp:Abs-Feuchte:Windchill:Wind:
Aussen-T/F 101 10-05-2019 04:00:00 8.56667 C 8.25 g/m*3 8.57 C 0 km/h
102 10-05-2019 05:00:00 8.28333 C 8.08 g/m*3 7.49 C 6.03333 km/h
103 10-05-2019 06:00:00 8.40833 C 8.15 g/m*3 7.63 C 6.03333 km/h
104 10-05-2019 07:00:00 8.75 C 8.29 g/m*3 8.75 C 2.675 km/h
105 10-05-2019 08:00:00 9.175 C 8.39 g/m*3 8.71 C 5.36667 km/h
106 10-05-2019 09:00:00 10.7 C 8.59 g/m*3 9.13 C 12.225 km/h
107 10-05-2019 10:00:00 12.1 C 8.73 g/m*3 12.1 C 11.03333 km/h
108 10-05-2019 11:00:00 13.23333 C 8.72 g/m*3 13.23 C 11.025 km/h
109 10-05-2019 12:00:00 14.35 C 8.31 g/m*3 14.35 C 12.9 km/h
110 10-05-2019 13:00:00 15.44167 C 7.9 g/m*3 15.44 C 12.23333 km/h
111 10-05-2019 14:00:00 16.75 C 7.76 g/m*3 16.75 C 13.83333 km/h
112 10-05-2019 15:00:00 17.21667 C 7.7 g/m*3 17.22 C 10.9 km/h
113 10-05-2019 16:00:00 17.93333 C 7.55 g/m*3 17.93 C 8.05 km/h
114 10-05-2019 17:00:00 17.6 C 7.32 g/m*3 17.6 C 9.80833 km/h
115 10-05-2019 18:00:00 17.25 C 7.43 g/m*3 17.25 C 5.36667 km/h
116 10-05-2019 19:00:00 17.18333 C 9.07 g/m*3 17.18 C 0.66667 km/h
117 10-05-2019 20:00:00 14.175 C 8.72 g/m*3 14.18 C 0 km/h
118 10-05-2019 21:00:00 12.35 C 8.43 g/m*3 12.35 C 0 km/h
119 10-05-2019 22:00:00 11.76667 C 8.54 g/m*3 11.77 C 0 km/h
120 10-05-2019 23:00:00 11.53333 C 8.62 g/m*3 11.53 C 0 km/h
121 11-05-2019 00:00:00 11.04167 C 8.69 g/m*3 11.04 C 0.4 km/h
122 11-05-2019 01:00:00 10.36667 C 8.77 g/m*3 10.37 C 0.13333 km/h
123 11-05-2019 02:00:00 10.1 C 8.83 g/m*3 10.1 C 0 km/h
124 11-05-2019 03:00:00 9.925 C 8.81 g/m*3 9.93 C 0.13333 km/h
125 11-05-2019 04:00:00 9.7 C 8.76 g/m*3 9.7 C 0 km/h
Sensor: Nr:Datum:Temp:Abs-Feuchte:Windchill:Wind:
Aussen-T/F 126 11-05-2019 05:00:00 9.775 C 8.87 g/m*3 9.78 C 0.26667 km/h
127 11-05-2019 06:00:00 9.7 C 8.85 g/m*3 9.7 C 0.26667 km/h
128 11-05-2019 07:00:00 9.7 C 8.85 g/m*3 9.7 C 0.4 km/h
129 11-05-2019 08:00:00 9.65833 C 8.83 g/m*3 9.66 C 2.80833 km/h
130 11-05-2019 09:00:00 9.70833 C 8.85 g/m*3 9.71 C 4.95 km/h
131 11-05-2019 10:00:00 9.85833 C 8.94 g/m*3 9.49 C 5.35 km/h
132 11-05-2019 11:00:00 10.13333 C 9.1 g/m*3 10.13 C 4.95 km/h
133 11-05-2019 12:00:00 10.36667 C 9.1 g/m*3 9.27 C 8.875 km/h
134 11-05-2019 13:00:00 9.79167 C 8.72 g/m*3 8.61 C 8.73333 km/h
135 11-05-2019 14:00:00 9.76667 C 8.79 g/m*3 9.77 C 1.86667 km/h
136 11-05-2019 15:00:00 9.91667 C 8.88 g/m*3 9.92 C 3.475 km/h
137 11-05-2019 16:00:00 10.31667 C 9.2 g/m*3 10.32 C 1.6 km/h
138 11-05-2019 17:00:00 10.95833 C 9.53 g/m*3 10.96 C 2.94167 km/h
139 11-05-2019 18:00:00 11.79167 C 9.33 g/m*3 11.79 C 11.96667 km/h
140 11-05-2019 19:00:00 12.1 C 8.75 g/m*3 12.1 C 14.36667 km/h
141 11-05-2019 20:00:00 11.3 C 8.59 g/m*3 11.3 C 3.89167 km/h
142 11-05-2019 21:00:00 9.44167 C 8.27 g/m*3 9.44 C 0 km/h
143 11-05-2019 22:00:00 8.33333 C 7.84 g/m*3 8.33 C 0 km/h
144 11-05-2019 23:00:00 7.65 C 7.62 g/m*3 7.65 C 0 km/h
145 12-05-2019 00:00:00 7.41667 C 7.56 g/m*3 7.42 C 0.4 km/h
146 12-05-2019 01:00:00 6.75 C 7.24 g/m*3 6.75 C 1.46667 km/h
147 12-05-2019 02:00:00 6.43333 C 7 g/m*3 6.43 C 3.86667 km/h
148 12-05-2019 03:00:00 5.66667 C 6.6 g/m*3 5.67 C 1.46667 km/h
149 12-05-2019 04:00:00 4.70833 C 6.25 g/m*3 4.71 C 0.13333 km/h
150 12-05-2019 05:00:00 4.225 C 6.11 g/m*3 4.22 C 0 km/h
Sensor: Nr:Datum:Temp:Abs-Feuchte:Windchill:Wind:
Aussen-T/F 151 12-05-2019 06:00:00 4.45833 C 6.23 g/m*3 4.46 C 0.93333 km/h
152 12-05-2019 07:00:00 5.68333 C 6.53 g/m*3 4.77 C 5.225 km/h
153 12-05-2019 08:00:00 6.98333 C 6.62 g/m*3 5.69 C 7.1 km/h
154 12-05-2019 09:00:00 8.125 C 6.56 g/m*3 6.03 C 12.09167 km/h
155 12-05-2019 10:00:00 8.83333 C 6.48 g/m*3 6.89 C 12.1 km/h
156 12-05-2019 11:00:00 9.58333 C 6.35 g/m*3 7.68 C 12.89167 km/h
157 12-05-2019 12:00:00 10.54167 C 6.3 g/m*3 9.07 C 11.3 km/h
158 12-05-2019 13:00:00 11.66667 C 6.28 g/m*3 11.67 C 12.76667 km/h
159 12-05-2019 14:00:00 12.83333 C 6.15 g/m*3 12.83 C 12.1 km/h
160 12-05-2019 15:00:00 14.13333 C 6.19 g/m*3 14.13 C 12.76667 km/h
161 12-05-2019 16:00:00 15.25833 C 5.99 g/m*3 15.26 C 12.23333 km/h
162 12-05-2019 17:00:00 14.83333 C 5.78 g/m*3 14.83 C 11.43333 km/h
163 12-05-2019 18:00:00 15.19167 C 5.65 g/m*3 15.19 C 14.1 km/h
164 12-05-2019 19:00:00 13.96667 C 5.43 g/m*3 13.97 C 12.35833 km/h
165 12-05-2019 20:00:00 13.09167 C 5.62 g/m*3 13.09 C 5.775 km/h
166 12-05-2019 21:00:00 9.68333 C 6.57 g/m*3 9.68 C 0.66667 km/h
167 12-05-2019 22:00:00 8.375 C 6.5 g/m*3 8.38 C 0.26667 km/h
168 12-05-2019 23:00:00 7.30833 C 6.21 g/m*3 7.31 C 0.53333 km/h
169 13-05-2019 00:00:00 6.45 C 6.14 g/m*3 6.45 C 0 km/h
170 13-05-2019 01:00:00 5.11667 C 6 g/m*3 5.12 C 0 km/h
171 13-05-2019 02:00:00 4.15 C 5.82 g/m*3 4.15 C 0 km/h
172 13-05-2019 03:00:00 3.60833 C 5.71 g/m*3 3.61 C 0 km/h
173 13-05-2019 04:00:00 3.075 C 5.57 g/m*3 3.08 C 0.13333 km/h
174 13-05-2019 05:00:00 2.64167 C 5.46 g/m*3 2.64 C 0.13333 km/h
175 13-05-2019 06:00:00 2.30833 C 5.36 g/m*3 2.31 C 0 km/h
Sensor: Nr:Datum:Temp:Abs-Feuchte:Windchill:Wind:
Aussen-T/F 176 13-05-2019 07:00:00 2.63333 C 5.52 g/m*3 2.63 C 0 km/h
177 13-05-2019 08:00:00 4.26667 C 6.21 g/m*3 4.27 C 0 km/h
178 13-05-2019 09:00:00 6.13333 C 6.62 g/m*3 6.13 C 0.53333 km/h
179 13-05-2019 10:00:00 9.69167 C 5.33 g/m*3 9.11 C 6.04167 km/h
180 13-05-2019 11:00:00 11.4 C 5 g/m*3 11.4 C 4.54167 km/h
181 13-05-2019 12:00:00 13.43333 C 3.8 g/m*3 13.43 C 15.7 km/h
182 13-05-2019 13:00:00 14.6 C 3.74 g/m*3 14.6 C 12.36667 km/h
183 13-05-2019 14:00:00 15.575 C 4.12 g/m*3 15.58 C 11.025 km/h
184 13-05-2019 15:00:00 17.19167 C 4.33 g/m*3 17.19 C 11.025 km/h
185 13-05-2019 16:00:00 18.43333 C 4.56 g/m*3 18.43 C 15.56667 km/h
186 13-05-2019 17:00:00 18.6 C 4.52 g/m*3 18.6 C 16.1 km/h
187 13-05-2019 18:00:00 18.08333 C 4.45 g/m*3 18.08 C 16.36667 km/h
188 13-05-2019 19:00:00 16.95833 C 4.74 g/m*3 16.96 C 17.03333 km/h
189 13-05-2019 20:00:00 15.41667 C 4.57 g/m*3 15.42 C 12.76667 km/h
190 13-05-2019 21:00:00 12.25 C 5.46 g/m*3 12.25 C 1.74167 km/h
191 13-05-2019 22:00:00 9.325 C 5.48 g/m*3 9.32 C 0.13333 km/h
192 13-05-2019 23:00:00 7.875 C 5.69 g/m*3 7.88 C 0 km/h
193 14-05-2019 00:00:00 6.7 C 5.69 g/m*3 6.7 C 0 km/h
194 14-05-2019 01:00:00 5.76667 C 5.54 g/m*3 5.77 C 0 km/h
195 14-05-2019 02:00:00 4.74167 C 5.43 g/m*3 4.74 C 0 km/h
196 14-05-2019 03:00:00 3.83333 C 5.32 g/m*3 3.83 C 0 km/h
197 14-05-2019 04:00:00 3.18333 C 5.24 g/m*3 3.18 C 0 km/h
198 14-05-2019 05:00:00 2.66667 C 5.17 g/m*3 2.67 C 0 km/h
199 14-05-2019 06:00:00 2.41667 C 5.19 g/m*3 2.42 C 0 km/h
200 14-05-2019 07:00:00 2.825 C 5.44 g/m*3 2.83 C 0 km/h
Sensor: Nr:Datum:Temp:Abs-Feuchte:Windchill:Wind:
Aussen-T/F 201 14-05-2019 08:00:00 4.2 C 5.97 g/m*3 4.2 C 0 km/h
202 14-05-2019 09:00:00 6.50833 C 6.44 g/m*3 6.51 C 1.46667 km/h
203 14-05-2019 10:00:00 9.575 C 6.34 g/m*3 8.9 C 6.30833 km/h
204 14-05-2019 11:00:00 12.65 C 5.64 g/m*3 12.65 C 15.7 km/h
205 14-05-2019 12:00:00 13.45833 C 5.35 g/m*3 13.46 C 13.83333 km/h
206 14-05-2019 13:00:00 14.21667 C 5.35 g/m*3 14.22 C 15.7 km/h
207 14-05-2019 14:00:00 14.79167 C 5.44 g/m*3 14.79 C 15.83333 km/h
208 14-05-2019 15:00:00 16.00833 C 5.43 g/m*3 16.01 C 13.96667 km/h
209 14-05-2019 16:00:00 16.59167 C 5.24 g/m*3 16.59 C 15.69167 km/h
210 14-05-2019 17:00:00 16.8 C 5.21 g/m*3 16.8 C 14.75833 km/h
211 14-05-2019 18:00:00 16.475 C 5.22 g/m*3 16.48 C 9.53333 km/h
212 14-05-2019 19:00:00 16.075 C 5.22 g/m*3 16.08 C 7.50833 km/h
213 14-05-2019 20:00:00 13.73333 C 5.8 g/m*3 13.73 C 4.15833 km/h
214 14-05-2019 21:00:00 10.35 C 5.82 g/m*3 10.35 C 0.53333 km/h
215 14-05-2019 22:00:00 8.73333 C 5.89 g/m*3 8.73 C 0 km/h
216 14-05-2019 23:00:00 7.69167 C 5.83 g/m*3 7.69 C 0 km/h
217 15-05-2019 00:00:00 6.88333 C 5.65 g/m*3 6.88 C 0 km/h
218 15-05-2019 01:00:00 5.89167 C 5.57 g/m*3 5.89 C 0 km/h
219 15-05-2019 02:00:00 4.74167 C 5.44 g/m*3 4.74 C 0 km/h
220 15-05-2019 03:00:00 3.98333 C 5.37 g/m*3 3.98 C 0 km/h
221 15-05-2019 04:00:00 3.15 C 5.25 g/m*3 3.15 C 0 km/h
222 15-05-2019 05:00:00 2.60833 C 5.15 g/m*3 2.61 C 0 km/h
223 15-05-2019 06:00:00 2.325 C 5.17 g/m*3 2.33 C 0 km/h
224 15-05-2019 07:00:00 2.75833 C 5.41 g/m*3 2.76 C 0 km/h
225 15-05-2019 08:00:00 3.775 C 5.81 g/m*3 3.78 C 0 km/h
Sensor: Nr:Datum:Temp:Abs-Feuchte:Windchill:Wind:
Aussen-T/F 226 15-05-2019 09:00:00 5.99167 C 6.19 g/m*3 5.99 C 2.81667 km/h
227 15-05-2019 10:00:00 10.15833 C 5.19 g/m*3 9.15 C 8.19167 km/h
228 15-05-2019 11:00:00 12.05 C 4.88 g/m*3 12.05 C 10.225 km/h
229 15-05-2019 12:00:00 12.95 C 4.63 g/m*3 12.95 C 8.85833 km/h
230 15-05-2019 13:00:00 14.08333 C 4.35 g/m*3 14.08 C 13.56667 km/h
231 15-05-2019 14:00:00 14.95 C 4.75 g/m*3 14.95 C 15.96667 km/h
232 15-05-2019 15:00:00 15.975 C 4.64 g/m*3 15.98 C 17.83333 km/h
233 15-05-2019 16:00:00 17.19167 C 5.03 g/m*3 17.19 C 12.1 km/h
234 15-05-2019 17:00:00 17.58333 C 4.96 g/m*3 17.58 C 14.1 km/h
235 15-05-2019 18:00:00 17.38333 C 5.02 g/m*3 17.38 C 13.55833 km/h
236 15-05-2019 19:00:00 16.55833 C 4.97 g/m*3 16.56 C 11.55 km/h
237 15-05-2019 20:00:00 15.10833 C 5.45 g/m*3 15.11 C 4.69167 km/h
238 15-05-2019 21:00:00 11.45833 C 5.85 g/m*3 11.46 C 1.74167 km/h
239 15-05-2019 22:00:00 9.525 C 5.5 g/m*3 9.53 C 0.53333 km/h
240 15-05-2019 23:00:00 8.09167 C 5.32 g/m*3 8.09 C 0.93333 km/h
241 16-05-2019 00:00:00 7.39167 C 5.29 g/m*3 7.39 C 1.6 km/h
242 16-05-2019 01:00:00 6.64167 C 5.56 g/m*3 6.64 C 0 km/h
243 16-05-2019 02:00:00 5.725 C 5.61 g/m*3 5.73 C 0 km/h
244 16-05-2019 03:00:00 5.58333 C 5.8 g/m*3 5.58 C 0 km/h
245 16-05-2019 04:00:00 5.71667 C 5.95 g/m*3 5.72 C 0 km/h
246 16-05-2019 05:00:00 5.83333 C 6.04 g/m*3 5.83 C 0 km/h
247 16-05-2019 06:00:00 5.95 C 6.18 g/m*3 5.95 C 0.13333 km/h
248 16-05-2019 07:00:00 6.64167 C 6.45 g/m*3 6.64 C 0 km/h
249 16-05-2019 08:00:00 7.98333 C 6.84 g/m*3 7.98 C 0.13333 km/h
250 16-05-2019 09:00:00 9.95 C 6.81 g/m*3 9.95 C 4.15 km/h
Sensor: Nr:Datum:Temp:Abs-Feuchte:Windchill:Wind:
Aussen-T/F 251 16-05-2019 10:00:00 11.65833 C 6.56 g/m*3 11.66 C 8.45833 km/h
252 16-05-2019 11:00:00 12.20833 C 6.32 g/m*3 12.21 C 8.33333 km/h
253 16-05-2019 12:00:00 13.13333 C 6.73 g/m*3 13.13 C 8.875 km/h
254 16-05-2019 13:00:00 14.68333 C 7.13 g/m*3 14.68 C 10.76667 km/h
255 16-05-2019 14:00:00 15.4 C 7.34 g/m*3 15.4 C 10.48333 km/h
256 16-05-2019 15:00:00 17.38333 C 7.71 g/m*3 17.38 C 10.08333 km/h
257 16-05-2019 16:00:00 18.23333 C 7.73 g/m*3 18.23 C 8.45 km/h
258 16-05-2019 17:00:00 16.90833 C 7.77 g/m*3 16.91 C 9.69167 km/h
259 16-05-2019 18:00:00 15.44167 C 8.11 g/m*3 15.44 C 11.95 km/h
260 16-05-2019 19:00:00 14.075 C 8.25 g/m*3 14.08 C 4.41667 km/h
261 16-05-2019 20:00:00 12.56667 C 8.08 g/m*3 12.57 C 6.70833 km/h
262 16-05-2019 21:00:00 11.175 C 7.69 g/m*3 11.18 C 8.21667 km/h
263 16-05-2019 22:00:00 10.23333 C 7.8 g/m*3 10.23 C 4.29167 km/h
264 16-05-2019 23:00:00 9.60833 C 7.91 g/m*3 9.61 C 0.66667 km/h
265 17-05-2019 00:00:00 9.08333 C 8.06 g/m*3 9.08 C 0 km/h
266 17-05-2019 01:00:00 8.79167 C 8.05 g/m*3 8.79 C 0 km/h
267 17-05-2019 02:00:00 8.7 C 8.1 g/m*3 8.7 C 0 km/h
268 17-05-2019 03:00:00 8.63333 C 8.11 g/m*3 8.63 C 0.53333 km/h
269 17-05-2019 04:00:00 8.475 C 8.09 g/m*3 8.48 C 0.13333 km/h
270 17-05-2019 05:00:00 8.36667 C 8.04 g/m*3 8.37 C 0 km/h
271 17-05-2019 06:00:00 8.45 C 8.13 g/m*3 8.45 C 0 km/h
272 17-05-2019 07:00:00 8.71667 C 8.31 g/m*3 8.72 C 0.4 km/h
273 17-05-2019 08:00:00 8.96667 C 8.45 g/m*3 8.97 C 1.73333 km/h
274 17-05-2019 09:00:00 9.29167 C 8.62 g/m*3 9.29 C 1.86667 km/h
275 17-05-2019 10:00:00 9.625 C 8.81 g/m*3 9.63 C 4.825 km/h
Sensor: Nr:Datum:Temp:Abs-Feuchte:Windchill:Wind:
Aussen-T/F 276 17-05-2019 11:00:00 10.2 C 9.05 g/m*3 10.2 C 3.86667 km/h
277 17-05-2019 12:00:00 11.175 C 9.49 g/m*3 11.18 C 6.425 km/h
278 17-05-2019 13:00:00 12.825 C 10 g/m*3 12.83 C 8.625 km/h
279 17-05-2019 14:00:00 14.44167 C 10.43 g/m*3 14.44 C 6.58333 km/h
280 17-05-2019 15:00:00 15.54167 C 10.58 g/m*3 15.54 C 7.26667 km/h
281 17-05-2019 16:00:00 16.35 C 10.47 g/m*3 16.35 C 7.65833 km/h
282 17-05-2019 17:00:00 17.35 C 10.47 g/m*3 17.35 C 6.70833 km/h
283 17-05-2019 18:00:00 16.8 C 11.2 g/m*3 16.8 C 2 km/h
284 17-05-2019 19:00:00 16.625 C 11.34 g/m*3 16.63 C 0.26667 km/h
285 17-05-2019 20:00:00 13.975 C 10.28 g/m*3 13.98 C 0.26667 km/h
286 17-05-2019 21:00:00 12.00833 C 9.56 g/m*3 12.01 C 0.26667 km/h
287 17-05-2019 22:00:00 11.96667 C 9.78 g/m*3 11.97 C 0 km/h
288 17-05-2019 23:00:00 12.05833 C 9.99 g/m*3 12.06 C 0.4 km/h
289 18-05-2019 00:00:00 11.6 C 9.77 g/m*3 11.6 C 0 km/h
290 18-05-2019 01:00:00 10.44167 C 9.12 g/m*3 10.44 C 0.4 km/h
291 18-05-2019 02:00:00 10.58333 C 9.34 g/m*3 10.58 C 0 km/h
292 18-05-2019 03:00:00 10.43333 C 9.26 g/m*3 10.43 C 0 km/h
293 18-05-2019 04:00:00 9.925 C 8.98 g/m*3 9.93 C 0 km/h
294 18-05-2019 05:00:00 9.31667 C 8.64 g/m*3 9.32 C 0 km/h
295 18-05-2019 06:00:00 9.35833 C 8.7 g/m*3 9.36 C 0 km/h
296 18-05-2019 07:00:00 10.23333 C 9.25 g/m*3 10.23 C 0.13333 km/h
297 18-05-2019 08:00:00 11.2 C 9.82 g/m*3 11.2 C 1.6 km/h
298 18-05-2019 09:00:00 12.275 C 10.26 g/m*3 12.28 C 0.66667 km/h
299 18-05-2019 10:00:00 14.16667 C 11.13 g/m*3 14.17 C 1.2 km/h
300 18-05-2019 11:00:00 16.9 C 11.11 g/m*3 16.9 C 4.675 km/h
Sensor: Nr:Datum:Temp:Abs-Feuchte:Windchill:Wind:
Aussen-T/F 301 18-05-2019 12:00:00 18.14167 C 11.07 g/m*3 18.14 C 3.86667 km/h
302 18-05-2019 13:00:00 19.01667 C 11.27 g/m*3 19.02 C 4.15833 km/h
303 18-05-2019 14:00:00 20.34167 C 11.02 g/m*3 20.34 C 5.50833 km/h
304 18-05-2019 15:00:00 21.05833 C 10.74 g/m*3 21.06 C 6.30833 km/h
305 18-05-2019 16:00:00 22.41667 C 11.99 g/m*3 22.42 C 8.05833 km/h
306 18-05-2019 17:00:00 21.04167 C 12.96 g/m*3 21.04 C 0.26667 km/h
307 18-05-2019 18:00:00 18.54167 C 12.15 g/m*3 18.54 C 2 km/h
308 18-05-2019 19:00:00 15.85 C 11.74 g/m*3 15.85 C 1.33333 km/h
309 18-05-2019 20:00:00 14.79167 C 11.45 g/m*3 14.79 C 0 km/h
310 18-05-2019 21:00:00 13.71667 C 10.91 g/m*3 13.72 C 0.26667 km/h
311 18-05-2019 22:00:00 12.75 C 10.42 g/m*3 12.75 C 0.26667 km/h
312 18-05-2019 23:00:00 12.53333 C 10.43 g/m*3 12.53 C 0.66667 km/h
313 19-05-2019 00:00:00 12.79167 C 10.64 g/m*3 12.79 C 0 km/h
314 19-05-2019 01:00:00 12.73333 C 10.6 g/m*3 12.73 C 0.4 km/h
315 19-05-2019 02:00:00 12.26667 C 10.29 g/m*3 12.27 C 0 km/h
316 19-05-2019 03:00:00 11.71667 C 10 g/m*3 11.72 C 0 km/h
317 19-05-2019 04:00:00 11.625 C 9.99 g/m*3 11.63 C 0 km/h
318 19-05-2019 05:00:00 11.38333 C 9.84 g/m*3 11.38 C 0 km/h
319 19-05-2019 06:00:00 11.475 C 9.99 g/m*3 11.48 C 0.13333 km/h
320 19-05-2019 07:00:00 12.13333 C 10.42 g/m*3 12.13 C 0.93333 km/h
321 19-05-2019 08:00:00 12.825 C 10.88 g/m*3 12.83 C 2 km/h
322 19-05-2019 09:00:00 13.73333 C 11.5 g/m*3 13.73 C 2.66667 km/h
323 19-05-2019 10:00:00 15.11667 C 12.25 g/m*3 15.12 C 0.66667 km/h
324 19-05-2019 11:00:00 16.26667 C 12.5 g/m*3 16.27 C 2.66667 km/h
325 19-05-2019 12:00:00 17.99167 C 12.93 g/m*3 17.99 C 7.525 km/h
Sensor: Nr:Datum:Temp:Abs-Feuchte:Windchill:Wind:
Aussen-T/F 326 19-05-2019 13:00:00 18.78333 C 12.47 g/m*3 18.78 C 8.88333 km/h
327 19-05-2019 14:00:00 20.225 C 11.78 g/m*3 20.23 C 8.89167 km/h
328 19-05-2019 15:00:00 22.54167 C 12.28 g/m*3 22.54 C 9.55833 km/h
329 19-05-2019 16:00:00 23.4 C 12.28 g/m*3 23.4 C 11.69167 km/h
330 19-05-2019 17:00:00 19.25833 C 10.48 g/m*3 19.26 C 9.525 km/h
331 19-05-2019 18:00:00 19.96667 C 11.24 g/m*3 19.97 C 7.39167 km/h
332 19-05-2019 19:00:00 20.475 C 11.22 g/m*3 20.48 C 3.73333 km/h
333 19-05-2019 20:00:00 18.96667 C 11.15 g/m*3 18.97 C 0.4 km/h
334 19-05-2019 21:00:00 15.7 C 10.82 g/m*3 15.7 C 0.13333 km/h
335 19-05-2019 22:00:00 14.53333 C 10.74 g/m*3 14.53 C 1.06667 km/h
336 19-05-2019 23:00:00 14.65833 C 10.64 g/m*3 14.66 C 2.40833 km/h
337 20-05-2019 00:00:00 14.48333 C 10.64 g/m*3 14.48 C 4.14167 km/h
338 20-05-2019 01:00:00 13.40833 C 10.39 g/m*3 13.41 C 1.06667 km/h
339 20-05-2019 02:00:00 12.46667 C 10.05 g/m*3 12.47 C 0.66667 km/h
340 20-05-2019 03:00:00 12.23333 C 10.07 g/m*3 12.23 C 1.33333 km/h
341 20-05-2019 04:00:00 12.7 C 10.46 g/m*3 12.7 C 2.4 km/h
342 20-05-2019 05:00:00 13.13333 C 10.63 g/m*3 13.13 C 3.73333 km/h
343 20-05-2019 06:00:00 13.15 C 10.53 g/m*3 13.15 C 7.25 km/h
344 20-05-2019 07:00:00 13.16667 C 10.54 g/m*3 13.17 C 1.33333 km/h
345 20-05-2019 08:00:00 13.475 C 10.72 g/m*3 13.48 C 0.53333 km/h
346 20-05-2019 09:00:00 13.95 C 10.81 g/m*3 13.95 C 4.55833 km/h
347 20-05-2019 10:00:00 14.25833 C 10.92 g/m*3 14.26 C 5.775 km/h
348 20-05-2019 11:00:00 14.125 C 11.17 g/m*3 14.13 C 3.61667 km/h
349 20-05-2019 12:00:00 14.08333 C 11.16 g/m*3 14.08 C 7.93333 km/h
350 20-05-2019 13:00:00 13.85833 C 11 g/m*3 13.86 C 9.125 km/h
Sensor: Nr:Datum:Temp:Abs-Feuchte:Windchill:Wind:
Aussen-T/F 351 20-05-2019 14:00:00 14.29167 C 11.23 g/m*3 14.29 C 9.01667 km/h
352 20-05-2019 15:00:00 14.6 C 11.17 g/m*3 14.6 C 7.1 km/h
353 20-05-2019 16:00:00 14.84167 C 11.14 g/m*3 14.84 C 9.55 km/h
354 20-05-2019 17:00:00 14.93333 C 11.11 g/m*3 14.93 C 8.08333 km/h
355 20-05-2019 18:00:00 14.86667 C 10.95 g/m*3 14.87 C 11.95833 km/h
356 20-05-2019 19:00:00 14.65 C 10.88 g/m*3 14.65 C 7.125 km/h
357 20-05-2019 20:00:00 14.5 C 10.85 g/m*3 14.5 C 9.15833 km/h
358 20-05-2019 21:00:00 14.19167 C 10.74 g/m*3 14.19 C 9.81667 km/h
359 20-05-2019 22:00:00 14.1 C 10.68 g/m*3 14.1 C 7.93333 km/h
360 20-05-2019 23:00:00 14.21667 C 10.58 g/m*3 14.22 C 6.575 km/h
361 21-05-2019 00:00:00 14.23333 C 10.6 g/m*3 14.23 C 9.54167 km/h
362 21-05-2019 01:00:00 13.8 C 10.66 g/m*3 13.8 C 9.55 km/h
363 21-05-2019 02:00:00 13.56667 C 10.65 g/m*3 13.57 C 9.14167 km/h
364 21-05-2019 03:00:00 13.275 C 10.55 g/m*3 13.28 C 7.51667 km/h
365 21-05-2019 04:00:00 13.11667 C 10.39 g/m*3 13.12 C 7.65 km/h
366 21-05-2019 05:00:00 12.71667 C 10.21 g/m*3 12.72 C 10.09167 km/h
367 21-05-2019 06:00:00 12.21667 C 10.13 g/m*3 12.22 C 9.675 km/h
368 21-05-2019 07:00:00 12.23333 C 10.16 g/m*3 12.23 C 9.25833 km/h
369 21-05-2019 08:00:00 12.3 C 10.16 g/m*3 12.3 C 11.15833 km/h
370 21-05-2019 09:00:00 12.3 C 10.16 g/m*3 12.3 C 12.9 km/h
371 21-05-2019 10:00:00 12.23333 C 10.13 g/m*3 12.23 C 11.83333 km/h
372 21-05-2019 11:00:00 12.15 C 10.01 g/m*3 12.15 C 15.44167 km/h
373 21-05-2019 12:00:00 12.11667 C 10.07 g/m*3 12.12 C 11.025 km/h
374 21-05-2019 13:00:00 12.225 C 10.16 g/m*3 12.23 C 5.75833 km/h
375 21-05-2019 14:00:00 12.15 C 10.08 g/m*3 12.15 C 6.44167 km/h
Sensor: Nr:Datum:Temp:Abs-Feuchte:Windchill:Wind:
Aussen-T/F 376 21-05-2019 15:00:00 12.15833 C 10.02 g/m*3 12.16 C 9.00833 km/h
377 21-05-2019 16:00:00 12.09167 C 10.07 g/m*3 12.09 C 9.4 km/h
378 21-05-2019 17:00:00 12.18333 C 10.14 g/m*3 12.18 C 7.51667 km/h
379 21-05-2019 18:00:00 12.275 C 10.2 g/m*3 12.28 C 7.125 km/h
380 21-05-2019 19:00:00 12.375 C 10.22 g/m*3 12.38 C 6.98333 km/h
381 21-05-2019 20:00:00 12.21667 C 10.24 g/m*3 12.22 C 3.88333 km/h
382 21-05-2019 21:00:00 12.1 C 10.19 g/m*3 12.1 C 3.46667 km/h
383 21-05-2019 22:00:00 12.04167 C 10.19 g/m*3 12.04 C 3.875 km/h
384 21-05-2019 23:00:00 11.85833 C 10.14 g/m*3 11.86 C 0 km/h
385 22-05-2019 00:00:00 11.8 C 10.1 g/m*3 11.8 C 0 km/h
386 22-05-2019 01:00:00 11.75 C 10.07 g/m*3 11.75 C 1.33333 km/h
387 22-05-2019 02:00:00 11.56667 C 9.96 g/m*3 11.57 C 4.54167 km/h
388 22-05-2019 03:00:00 11.575 C 9.96 g/m*3 11.58 C 2.66667 km/h
389 22-05-2019 04:00:00 11.44167 C 9.8 g/m*3 11.44 C 6.43333 km/h
390 22-05-2019 05:00:00 11.33333 C 9.71 g/m*3 11.33 C 6.025 km/h
391 22-05-2019 06:00:00 11.05 C 9.44 g/m*3 11.05 C 8.60833 km/h
392 22-05-2019 07:00:00 10.66667 C 9.15 g/m*3 9.44 C 9.94167 km/h
393 22-05-2019 08:00:00 10.33333 C 8.82 g/m*3 9.44 C 7.79167 km/h
394 22-05-2019 09:00:00 10.475 C 8.45 g/m*3 9.52 C 8.2 km/h
395 22-05-2019 10:00:00 10.88333 C 8.29 g/m*3 9.98 C 8.33333 km/h
396 22-05-2019 11:00:00 11.51667 C 8.51 g/m*3 11.52 C 8.88333 km/h
397 22-05-2019 12:00:00 12.85 C 8.61 g/m*3 12.85 C 9.825 km/h
398 22-05-2019 13:00:00 13.65833 C 8.69 g/m*3 13.66 C 8.2 km/h
399 22-05-2019 14:00:00 15.01667 C 8.94 g/m*3 15.02 C 9.41667 km/h
400 22-05-2019 15:00:00 17.08333 C 9.27 g/m*3 17.08 C 9.01667 km/h
Sensor: Nr:Datum:Temp:Abs-Feuchte:Windchill:Wind:
Aussen-T/F 401 22-05-2019 16:00:00 18.625 C 9.4 g/m*3 18.63 C 6.7 km/h
402 22-05-2019 17:00:00 18.24167 C 9.15 g/m*3 18.24 C 6.3 km/h
403 22-05-2019 18:00:00 19.46667 C 9.06 g/m*3 19.47 C 7.10833 km/h
404 22-05-2019 19:00:00 19.025 C 9.15 g/m*3 19.02 C 3.625 km/h
405 22-05-2019 20:00:00 17.24167 C 10.41 g/m*3 17.24 C 0 km/h
406 22-05-2019 21:00:00 13.73333 C 9.09 g/m*3 13.73 C 0 km/h
407 22-05-2019 22:00:00 11.64167 C 8.92 g/m*3 11.64 C 0 km/h
408 22-05-2019 23:00:00 10.33333 C 8.61 g/m*3 10.33 C 0 km/h
409 23-05-2019 00:00:00 9.5 C 8.34 g/m*3 9.5 C 0 km/h
410 23-05-2019 01:00:00 8.975 C 8.18 g/m*3 8.98 C 0 km/h
411 23-05-2019 02:00:00 8.54167 C 8.02 g/m*3 8.54 C 0 km/h
412 23-05-2019 03:00:00 8.35833 C 8.02 g/m*3 8.36 C 0 km/h
413 23-05-2019 04:00:00 7.93333 C 7.82 g/m*3 7.93 C 0 km/h
414 23-05-2019 05:00:00 7.71667 C 7.73 g/m*3 7.72 C 0.26667 km/h
415 23-05-2019 06:00:00 7.9 C 7.89 g/m*3 7.9 C 0.26667 km/h
416 23-05-2019 07:00:00 8.675 C 8.29 g/m*3 8.68 C 0.93333 km/h
417 23-05-2019 08:00:00 9.59167 C 8.77 g/m*3 9.59 C 0.26667 km/h
418 23-05-2019 09:00:00 11.05833 C 9.44 g/m*3 11.06 C 0 km/h
419 23-05-2019 10:00:00 13.75 C 10.38 g/m*3 13.75 C 1.74167 km/h
420 23-05-2019 11:00:00 17.49167 C 9.82 g/m*3 17.49 C 6.85 km/h
421 23-05-2019 12:00:00 18.84167 C 9.34 g/m*3 18.84 C 6.95833 km/h
422 23-05-2019 13:00:00 19.83333 C 9.66 g/m*3 19.83 C 5.35833 km/h
423 23-05-2019 14:00:00 21.25833 C 9.08 g/m*3 21.26 C 7.79167 km/h
424 23-05-2019 15:00:00 22.38333 C 9.14 g/m*3 22.38 C 4.55 km/h
425 23-05-2019 16:00:00 24.39167 C 8.73 g/m*3 24.39 C 7.25833 km/h
Sensor: Nr:Datum:Temp:Abs-Feuchte:Windchill:Wind:
Aussen-T/F 426 23-05-2019 17:00:00 24.78333 C 8.55 g/m*3 24.78 C 8.74167 km/h
427 23-05-2019 18:00:00 24.96667 C 8.62 g/m*3 24.97 C 5.34167 km/h
428 23-05-2019 19:00:00 22.80833 C 10.71 g/m*3 22.81 C 2.00833 km/h
429 23-05-2019 20:00:00 19.33333 C 10.77 g/m*3 19.33 C 0 km/h
430 23-05-2019 21:00:00 16.40833 C 10.35 g/m*3 16.41 C 0 km/h
431 23-05-2019 22:00:00 14.68333 C 10.31 g/m*3 14.68 C 0 km/h
432 23-05-2019 23:00:00 13.66667 C 9.9 g/m*3 13.67 C 0 km/h
433 24-05-2019 00:00:00 12.84167 C 9.7 g/m*3 12.84 C 0.93333 km/h
434 24-05-2019 01:00:00 12.36667 C 9.55 g/m*3 12.37 C 0 km/h
435 24-05-2019 02:00:00 11.83333 C 9.41 g/m*3 11.83 C 0 km/h
436 24-05-2019 03:00:00 11.40833 C 9.35 g/m*3 11.41 C 0 km/h
437 24-05-2019 04:00:00 11.25 C 9.35 g/m*3 11.25 C 0 km/h
438 24-05-2019 05:00:00 11.16667 C 9.31 g/m*3 11.17 C 0.13333 km/h
439 24-05-2019 06:00:00 11 C 9.3 g/m*3 11 C 0 km/h
440 24-05-2019 07:00:00 11.71667 C 9.71 g/m*3 11.72 C 0.53333 km/h
441 24-05-2019 08:00:00 13.29167 C 10.19 g/m*3 13.29 C 0.53333 km/h
442 24-05-2019 09:00:00 15.28333 C 10.47 g/m*3 15.28 C 1.2 km/h
443 24-05-2019 10:00:00 16.80833 C 10.92 g/m*3 16.81 C 0.93333 km/h
444 24-05-2019 11:00:00 18.925 C 11.06 g/m*3 18.93 C 3.2 km/h
445 24-05-2019 12:00:00 20.75833 C 10.36 g/m*3 20.76 C 5.49167 km/h
446 24-05-2019 13:00:00 22.09167 C 9.14 g/m*3 22.09 C 6.3 km/h
447 24-05-2019 14:00:00 22.98333 C 8.88 g/m*3 22.98 C 7.125 km/h
448 24-05-2019 15:00:00 23.45 C 8.54 g/m*3 23.45 C 8.86667 km/h
449 24-05-2019 16:00:00 23.88333 C 8.79 g/m*3 23.88 C 5.34167 km/h
450 24-05-2019 17:00:00 24.26667 C 9.37 g/m*3 24.27 C 4.40833 km/h
Sensor: Nr:Datum:Temp:Abs-Feuchte:Windchill:Wind:
Aussen-T/F 451 24-05-2019 18:00:00 24.40833 C 9.15 g/m*3 24.41 C 6.025 km/h
452 24-05-2019 19:00:00 21.04167 C 10.38 g/m*3 21.04 C 5.91667 km/h
453 24-05-2019 20:00:00 19.475 C 10.35 g/m*3 19.48 C 2.68333 km/h
454 24-05-2019 21:00:00 16.96667 C 10.33 g/m*3 16.97 C 0 km/h
455 24-05-2019 22:00:00 15.14167 C 10.29 g/m*3 15.14 C 0 km/h
456 24-05-2019 23:00:00 14.06667 C 10.17 g/m*3 14.07 C 0.53333 km/h
457 25-05-2019 00:00:00 14.75833 C 9.94 g/m*3 14.76 C 1.6 km/h
458 25-05-2019 01:00:00 13.875 C 9.31 g/m*3 13.88 C 0 km/h
459 25-05-2019 02:00:00 13.125 C 8.69 g/m*3 13.13 C 0.53333 km/h
460 25-05-2019 03:00:00 12.16667 C 8.19 g/m*3 12.17 C 0.13333 km/h
461 25-05-2019 04:00:00 10.84167 C 7.48 g/m*3 10.84 C 0 km/h
462 25-05-2019 05:00:00 10.2 C 7.35 g/m*3 10.2 C 0 km/h
463 25-05-2019 06:00:00 9.525 C 7.62 g/m*3 9.53 C 0.13333 km/h
464 25-05-2019 07:00:00 10.675 C 7.88 g/m*3 10.68 C 2.54167 km/h
465 25-05-2019 08:00:00 13.04167 C 8.21 g/m*3 13.04 C 9.15833 km/h
466 25-05-2019 09:00:00 14.025 C 8.66 g/m*3 14.03 C 5.88333 km/h
467 25-05-2019 10:00:00 15.3 C 8.91 g/m*3 15.3 C 4.68333 km/h
468 25-05-2019 11:00:00 16.25 C 8.78 g/m*3 16.25 C 6.96667 km/h
469 25-05-2019 12:00:00 16.95833 C 9.3 g/m*3 16.96 C 9.68333 km/h
470 25-05-2019 13:00:00 18.45 C 9.49 g/m*3 18.45 C 9.675 km/h
471 25-05-2019 14:00:00 19.35833 C 9.17 g/m*3 19.36 C 11.425 km/h
472 25-05-2019 15:00:00 21.01667 C 9.31 g/m*3 21.02 C 12.76667 km/h
473 25-05-2019 16:00:00 22.06667 C 9.09 g/m*3 22.07 C 13.16667 km/h
474 25-05-2019 17:00:00 21.73333 C 8.79 g/m*3 21.73 C 12.76667 km/h
475 25-05-2019 18:00:00 19.95 C 8.44 g/m*3 19.95 C 7.91667 km/h
Sensor: Nr:Datum:Temp:Abs-Feuchte:Windchill:Wind:
Aussen-T/F 476 25-05-2019 19:00:00 18.875 C 8.83 g/m*3 18.88 C 6.15833 km/h
477 25-05-2019 20:00:00 17.98333 C 9.85 g/m*3 17.98 C 1.74167 km/h
478 25-05-2019 21:00:00 16.03333 C 9.75 g/m*3 16.03 C 0.8 km/h
479 25-05-2019 22:00:00 14.81667 C 9.54 g/m*3 14.82 C 0 km/h
480 25-05-2019 23:00:00 13.38333 C 9.26 g/m*3 13.38 C 0.13333 km/h
481 26-05-2019 00:00:00 11.85 C 8.97 g/m*3 11.85 C 0 km/h
482 26-05-2019 01:00:00 10.775 C 8.77 g/m*3 10.78 C 0.4 km/h
483 26-05-2019 02:00:00 10.13333 C 8.62 g/m*3 10.13 C 0.4 km/h
484 26-05-2019 03:00:00 9.44167 C 8.37 g/m*3 9.44 C 0.13333 km/h
485 26-05-2019 04:00:00 8.95 C 8.19 g/m*3 8.95 C 1.60833 km/h
486 26-05-2019 05:00:00 8.825 C 8.23 g/m*3 8.82 C 0.4 km/h
487 26-05-2019 06:00:00 9.36667 C 8.53 g/m*3 9.37 C 2.00833 km/h
488 26-05-2019 07:00:00 9.9 C 8.75 g/m*3 9.9 C 4.425 km/h
489 26-05-2019 08:00:00 11.21667 C 9.45 g/m*3 11.22 C 1.6 km/h
490 26-05-2019 09:00:00 14.3 C 10.38 g/m*3 14.3 C 8.46667 km/h
491 26-05-2019 10:00:00 16.83333 C 10.43 g/m*3 16.83 C 7.93333 km/h
492 26-05-2019 11:00:00 18.16667 C 9.86 g/m*3 18.17 C 9.95 km/h
493 26-05-2019 12:00:00 18.99167 C 9.91 g/m*3 18.99 C 11.43333 km/h
494 26-05-2019 13:00:00 20.275 C 10.33 g/m*3 20.27 C 12.35833 km/h
495 26-05-2019 14:00:00 21.68333 C 10.07 g/m*3 21.68 C 12.76667 km/h
496 26-05-2019 15:00:00 23.43333 C 10.34 g/m*3 23.43 C 11.56667 km/h
497 26-05-2019 16:00:00 23.725 C 10.39 g/m*3 23.73 C 11.83333 km/h
498 26-05-2019 17:00:00 21.91667 C 10.77 g/m*3 21.92 C 9.56667 km/h
499 26-05-2019 18:00:00 21.45833 C 10.97 g/m*3 21.46 C 6.85 km/h
500 26-05-2019 19:00:00 19.93333 C 11.28 g/m*3 19.93 C 1.6 km/h
Sensor: Nr:Datum:Temp:Abs-Feuchte:Windchill:Wind:
Aussen-T/F 501 26-05-2019 20:00:00 18.36667 C 11.34 g/m*3 18.37 C 0.13333 km/h
502 26-05-2019 21:00:00 17.93333 C 10.82 g/m*3 17.93 C 4.55 km/h
503 26-05-2019 22:00:00 17.68333 C 10.86 g/m*3 17.68 C 1.46667 km/h
504 26-05-2019 23:00:00 16.925 C 10.84 g/m*3 16.93 C 1.2 km/h
505 27-05-2019 00:00:00 16.29167 C 10.87 g/m*3 16.29 C 1.2 km/h
506 27-05-2019 01:00:00 15.75 C 10.85 g/m*3 15.75 C 0.13333 km/h
507 27-05-2019 02:00:00 14.7 C 10.48 g/m*3 14.7 C 1.475 km/h
508 27-05-2019 03:00:00 14.1 C 10.25 g/m*3 14.1 C 0.26667 km/h
509 27-05-2019 04:00:00 13.85 C 10.44 g/m*3 13.85 C 1.86667 km/h
510 27-05-2019 05:00:00 14.19167 C 10.98 g/m*3 14.19 C 2.00833 km/h
511 27-05-2019 06:00:00 13.94167 C 11.16 g/m*3 13.94 C 2.95 km/h
512 27-05-2019 07:00:00 14.20833 C 11.48 g/m*3 14.21 C 2.66667 km/h
513 27-05-2019 08:00:00 14.94167 C 11.91 g/m*3 14.94 C 4.00833 km/h
514 27-05-2019 09:00:00 15.61667 C 12.34 g/m*3 15.62 C 1.875 km/h
515 27-05-2019 10:00:00 15.925 C 12.4 g/m*3 15.93 C 4.95 km/h
516 27-05-2019 11:00:00 15.25 C 11.92 g/m*3 15.25 C 4.7 km/h
517 27-05-2019 12:00:00 15.00833 C 11.95 g/m*3 15.01 C 1.2 km/h
518 27-05-2019 13:00:00 14.39167 C 11.55 g/m*3 14.39 C 2.80833 km/h
519 27-05-2019 14:00:00 14.53333 C 11.76 g/m*3 14.53 C 0.53333 km/h
520 27-05-2019 15:00:00 14.825 C 11.91 g/m*3 14.83 C 0.66667 km/h
521 27-05-2019 16:00:00 15.475 C 12.4 g/m*3 15.48 C 0.4 km/h
522 27-05-2019 17:00:00 16.075 C 12.67 g/m*3 16.08 C 0.66667 km/h
523 27-05-2019 18:00:00 16.275 C 12.89 g/m*3 16.27 C 0 km/h
524 27-05-2019 19:00:00 16.73333 C 13.23 g/m*3 16.73 C 0 km/h
525 27-05-2019 20:00:00 15.78333 C 12.32 g/m*3 15.78 C 0 km/h
Sensor: Nr:Datum:Temp:Abs-Feuchte:Windchill:Wind:
Aussen-T/F 526 27-05-2019 21:00:00 14.68333 C 11.71 g/m*3 14.68 C 0 km/h
527 27-05-2019 22:00:00 13.79167 C 11.22 g/m*3 13.79 C 0 km/h
528 27-05-2019 23:00:00 13.4 C 11.04 g/m*3 13.4 C 0 km/h
529 28-05-2019 00:00:00 12.96667 C 10.83 g/m*3 12.97 C 0.26667 km/h
530 28-05-2019 01:00:00 12.45 C 10.52 g/m*3 12.45 C 0 km/h
531 28-05-2019 02:00:00 12.55 C 10.66 g/m*3 12.55 C 0 km/h
532 28-05-2019 03:00:00 12.41667 C 10.56 g/m*3 12.42 C 0 km/h
533 28-05-2019 04:00:00 11.55 C 9.99 g/m*3 11.55 C 0 km/h
534 28-05-2019 05:00:00 11.80833 C 10.21 g/m*3 11.81 C 0 km/h
535 28-05-2019 06:00:00 12.18333 C 10.46 g/m*3 12.18 C 0 km/h
536 28-05-2019 07:00:00 12.51667 C 10.68 g/m*3 12.52 C 0 km/h
537 28-05-2019 08:00:00 12.84167 C 10.89 g/m*3 12.84 C 2 km/h
538 28-05-2019 09:00:00 13.425 C 11.13 g/m*3 13.43 C 5.20833 km/h
539 28-05-2019 10:00:00 14.74167 C 11.04 g/m*3 14.74 C 8.875 km/h
540 28-05-2019 11:00:00 15.65 C 10.78 g/m*3 15.65 C 12.625 km/h
541 28-05-2019 12:00:00 16.05 C 10.22 g/m*3 16.05 C 13.16667 km/h
542 28-05-2019 13:00:00 17.49167 C 9.9 g/m*3 17.49 C 12.9 km/h
543 28-05-2019 14:00:00 16.04167 C 9.61 g/m*3 16.04 C 15.43333 km/h
544 28-05-2019 15:00:00 13.65833 C 9.96 g/m*3 13.66 C 5.625 km/h
545 28-05-2019 16:00:00 15.80833 C 10.34 g/m*3 15.81 C 7.925 km/h
546 28-05-2019 17:00:00 16.80833 C 9.99 g/m*3 16.81 C 9.01667 km/h
547 28-05-2019 18:00:00 16.78333 C 9.34 g/m*3 16.78 C 12.1 km/h
548 28-05-2019 19:00:00 16.08333 C 9.31 g/m*3 16.08 C 10.89167 km/h
549 28-05-2019 20:00:00 14.10833 C 9.2 g/m*3 14.11 C 3.33333 km/h
550 28-05-2019 21:00:00 13.10833 C 9.32 g/m*3 13.11 C 5.5 km/h
Sensor: Nr:Datum:Temp:Abs-Feuchte:Windchill:Wind:
Aussen-T/F 551 28-05-2019 22:00:00 12.15 C 9.41 g/m*3 12.15 C 0.26667 km/h
552 28-05-2019 23:00:00 11.78333 C 9.33 g/m*3 11.78 C 2.675 km/h
553 29-05-2019 00:00:00 11.70833 C 8.98 g/m*3 11.71 C 2.81667 km/h
554 29-05-2019 01:00:00 11.73333 C 9.07 g/m*3 11.73 C 2.13333 km/h
555 29-05-2019 02:00:00 11.875 C 9.07 g/m*3 11.88 C 5.1 km/h
556 29-05-2019 03:00:00 11.675 C 9.09 g/m*3 11.68 C 2.8 km/h
557 29-05-2019 04:00:00 11.44167 C 8.89 g/m*3 11.44 C 4.55 km/h
558 29-05-2019 05:00:00 11.08333 C 8.71 g/m*3 11.08 C 3.06667 km/h
559 29-05-2019 06:00:00 10.875 C 8.6 g/m*3 10.88 C 2.93333 km/h
560 29-05-2019 07:00:00 10.81667 C 8.52 g/m*3 10.82 C 3.875 km/h
561 29-05-2019 08:00:00 11.225 C 8.53 g/m*3 11.23 C 6.14167 km/h
562 29-05-2019 09:00:00 12.225 C 8.68 g/m*3 12.23 C 4.40833 km/h
563 29-05-2019 10:00:00 13.83333 C 8.49 g/m*3 13.83 C 4.95 km/h
564 29-05-2019 11:00:00 15.09167 C 8.22 g/m*3 15.09 C 7.11667 km/h
565 29-05-2019 12:00:00 15.725 C 8.05 g/m*3 15.73 C 7.11667 km/h
566 29-05-2019 13:00:00 16.48333 C 7.59 g/m*3 16.48 C 7.38333 km/h
567 29-05-2019 14:00:00 17.40833 C 7.18 g/m*3 17.41 C 8.05 km/h
568 29-05-2019 15:00:00 18.99167 C 7.17 g/m*3 18.99 C 7.65 km/h
569 29-05-2019 16:00:00 20.91667 C 6.91 g/m*3 20.92 C 6.16667 km/h
570 29-05-2019 17:00:00 22.38333 C 6.94 g/m*3 22.38 C 6.98333 km/h
571 29-05-2019 18:00:00 22.1 C 7.4 g/m*3 22.1 C 6.71667 km/h
572 29-05-2019 19:00:00 21.55 C 8.49 g/m*3 21.55 C 3.33333 km/h
573 29-05-2019 20:00:00 18.66667 C 9.84 g/m*3 18.67 C 0 km/h
574 29-05-2019 21:00:00 15.49167 C 8.91 g/m*3 15.49 C 0.13333 km/h
575 29-05-2019 22:00:00 13.29167 C 8.95 g/m*3 13.29 C 0 km/h
Sensor: Nr:Datum:Temp:Abs-Feuchte:Windchill:Wind:
Aussen-T/F 576 29-05-2019 23:00:00 12.91667 C 8.94 g/m*3 12.92 C 0 km/h
577 30-05-2019 00:00:00 12.05833 C 8.69 g/m*3 12.06 C 0 km/h
578 30-05-2019 01:00:00 11.44167 C 8.69 g/m*3 11.44 C 0 km/h
579 30-05-2019 02:00:00 10.88333 C 8.56 g/m*3 10.88 C 0.66667 km/h
580 30-05-2019 03:00:00 9.95 C 8.3 g/m*3 9.95 C 0 km/h
581 30-05-2019 04:00:00 9.56667 C 8.28 g/m*3 9.57 C 0 km/h
582 30-05-2019 05:00:00 9.1 C 8.16 g/m*3 9.1 C 0 km/h
583 30-05-2019 06:00:00 9.71667 C 8.63 g/m*3 9.72 C 0.13333 km/h
584 30-05-2019 07:00:00 10.925 C 9.11 g/m*3 10.93 C 1.46667 km/h
585 30-05-2019 08:00:00 12.375 C 9.37 g/m*3 12.38 C 3.20833 km/h
586 30-05-2019 09:00:00 14.10833 C 9.89 g/m*3 14.11 C 2.13333 km/h
587 30-05-2019 10:00:00 16.09167 C 10.45 g/m*3 16.09 C 4.00833 km/h
588 30-05-2019 11:00:00 18.18333 C 10.16 g/m*3 18.18 C 10.63333 km/h
589 30-05-2019 12:00:00 18.2 C 10.18 g/m*3 18.2 C 6.98333 km/h
590 30-05-2019 13:00:00 18.23333 C 10.91 g/m*3 18.23 C 2.8 km/h
591 30-05-2019 14:00:00 19.425 C 11.22 g/m*3 19.43 C 10.35 km/h
592 30-05-2019 15:00:00 21.175 C 11.91 g/m*3 21.18 C 15.83333 km/h
593 30-05-2019 16:00:00 21.95833 C 12.18 g/m*3 21.96 C 14.23333 km/h
594 30-05-2019 17:00:00 21.625 C 12.3 g/m*3 21.63 C 13.7 km/h
595 30-05-2019 18:00:00 20.95833 C 12.4 g/m*3 20.96 C 10.625 km/h
596 30-05-2019 19:00:00 19.95 C 12.41 g/m*3 19.95 C 6.175 km/h
597 30-05-2019 20:00:00 18.94167 C 12.53 g/m*3 18.94 C 1.06667 km/h
598 30-05-2019 21:00:00 17.675 C 12.33 g/m*3 17.68 C 0.13333 km/h
599 30-05-2019 22:00:00 16.54167 C 12.06 g/m*3 16.54 C 0 km/h
600 30-05-2019 23:00:00 15.89167 C 11.91 g/m*3 15.89 C 0 km/h
Sensor: Nr:Datum:Temp:Abs-Feuchte:Windchill:Wind:
Aussen-T/F 601 31-05-2019 00:00:00 15.65 C 11.99 g/m*3 15.65 C 0.66667 km/h
602 31-05-2019 01:00:00 15.61667 C 12.09 g/m*3 15.62 C 1.33333 km/h
603 31-05-2019 02:00:00 15.46667 C 11.98 g/m*3 15.47 C 1.2 km/h
604 31-05-2019 03:00:00 14.41667 C 11.39 g/m*3 14.42 C 1.33333 km/h
605 31-05-2019 04:00:00 13.56667 C 10.95 g/m*3 13.57 C 0 km/h
606 31-05-2019 05:00:00 12.83333 C 10.61 g/m*3 12.83 C 0 km/h
607 31-05-2019 06:00:00 12.75 C 10.61 g/m*3 12.75 C 0 km/h
608 31-05-2019 07:00:00 13.1 C 10.95 g/m*3 13.1 C 0 km/h
609 31-05-2019 08:00:00 14.175 C 11.67 g/m*3 14.18 C 0 km/h
610 31-05-2019 09:00:00 16.24167 C 12.15 g/m*3 16.24 C 6.03333 km/h
611 31-05-2019 10:00:00 18.69167 C 11.94 g/m*3 18.69 C 6.71667 km/h
612 31-05-2019 11:00:00 20.225 C 11.95 g/m*3 20.23 C 6.84167 km/h
613 31-05-2019 12:00:00 21.375 C 12.23 g/m*3 21.38 C 9.025 km/h
614 31-05-2019 13:00:00 22.725 C 12.22 g/m*3 22.73 C 10.23333 km/h
615 31-05-2019 14:00:00 23.925 C 12.02 g/m*3 23.93 C 12.1 km/h
616 31-05-2019 15:00:00 25.28333 C 12.06 g/m*3 25.28 C 11.025 km/h
617 31-05-2019 16:00:00 27.3 C 11.82 g/m*3 27.3 C 9.81667 km/h
618 31-05-2019 17:00:00 27.50833 C 11.82 g/m*3 27.51 C 9.54167 km/h
619 31-05-2019 18:00:00 27.58333 C 11.45 g/m*3 27.58 C 7.51667 km/h
620 31-05-2019 19:00:00 25.63333 C 12.3 g/m*3 25.63 C 2.54167 km/h
621 31-05-2019 20:00:00 23.64167 C 12.51 g/m*3 23.64 C 2 km/h
622 31-05-2019 21:00:00 20.09167 C 12.47 g/m*3 20.09 C 0 km/h
623 31-05-2019 22:00:00 17.725 C 11.89 g/m*3 17.73 C 0 km/h
624 31-05-2019 23:00:00 15.91667 C 11.53 g/m*3 15.92 C 0 km/h
625 01-06-2019 00:00:00 14.65 C 11.15 g/m*3 14.65 C 0 km/h
Sensor: Nr:Datum:Temp:Abs-Feuchte:Windchill:Wind:
Aussen-T/F 626 01-06-2019 01:00:00 13.91667 C 10.99 g/m*3 13.92 C 0 km/h
627 01-06-2019 02:00:00 13.325 C 10.72 g/m*3 13.33 C 0 km/h
628 01-06-2019 03:00:00 12.83333 C 10.52 g/m*3 12.83 C 0 km/h
629 01-06-2019 04:00:00 12.2 C 10.14 g/m*3 12.2 C 0.13333 km/h
630 01-06-2019 05:00:00 11.75833 C 9.96 g/m*3 11.76 C 0.13333 km/h
631 01-06-2019 06:00:00 11.825 C 10.05 g/m*3 11.83 C 0.4 km/h
632 01-06-2019 07:00:00 12.61667 C 10.63 g/m*3 12.62 C 2.26667 km/h
633 01-06-2019 08:00:00 13.875 C 11.34 g/m*3 13.88 C 1.6 km/h
634 01-06-2019 09:00:00 15.45 C 12.08 g/m*3 15.45 C 1.06667 km/h
635 01-06-2019 10:00:00 18.14167 C 13.09 g/m*3 18.14 C 0.4 km/h
636 01-06-2019 11:00:00 20.91667 C 13.13 g/m*3 20.92 C 4.95833 km/h
637 01-06-2019 12:00:00 23.01667 C 13.12 g/m*3 23.02 C 10.1 km/h
638 01-06-2019 13:00:00 24.31667 C 13.14 g/m*3 24.32 C 9.29167 km/h
639 01-06-2019 14:00:00 25.51667 C 13.19 g/m*3 25.52 C 9.01667 km/h
640 01-06-2019 15:00:00 27.83333 C 13.34 g/m*3 27.83 C 9.14167 km/h
641 01-06-2019 16:00:00 29.975 C 13.22 g/m*3 29.98 C 7.925 km/h
642 01-06-2019 17:00:00 30.09167 C 12.85 g/m*3 30.09 C 6.98333 km/h
643 01-06-2019 18:00:00 30.23333 C 13.31 g/m*3 30.23 C 5.225 km/h
644 01-06-2019 19:00:00 29.675 C 15.12 g/m*3 29.68 C 2.66667 km/h
645 01-06-2019 20:00:00 26.65833 C 14.88 g/m*3 26.66 C 0.26667 km/h
646 01-06-2019 21:00:00 22.7 C 13.74 g/m*3 22.7 C 0 km/h
647 01-06-2019 22:00:00 20.00833 C 13.16 g/m*3 20.01 C 0 km/h
648 01-06-2019 23:00:00 18.20833 C 12.79 g/m*3 18.21 C 0 km/h
649 02-06-2019 00:00:00 16.75833 C 12.34 g/m*3 16.76 C 0 km/h
650 02-06-2019 01:00:00 15.66667 C 11.93 g/m*3 15.67 C 0 km/h
Sensor: Nr:Datum:Temp:Abs-Feuchte:Windchill:Wind:
Aussen-T/F 651 02-06-2019 02:00:00 14.925 C 11.71 g/m*3 14.93 C 0 km/h
652 02-06-2019 03:00:00 14.325 C 11.44 g/m*3 14.33 C 0 km/h
653 02-06-2019 04:00:00 13.81667 C 11.2 g/m*3 13.82 C 0 km/h
654 02-06-2019 05:00:00 13.29167 C 10.92 g/m*3 13.29 C 0 km/h
655 02-06-2019 06:00:00 13.40833 C 11.09 g/m*3 13.41 C 0 km/h
656 02-06-2019 07:00:00 13.95833 C 11.54 g/m*3 13.96 C 0.26667 km/h
657 02-06-2019 08:00:00 15.03333 C 12.33 g/m*3 15.03 C 0.13333 km/h
658 02-06-2019 09:00:00 16.60833 C 13.56 g/m*3 16.61 C 0 km/h
659 02-06-2019 10:00:00 19.64167 C 15.01 g/m*3 19.64 C 0 km/h
660 02-06-2019 11:00:00 23.11667 C 15.97 g/m*3 23.12 C 0.53333 km/h
661 02-06-2019 12:00:00 26.66667 C 14.61 g/m*3 26.67 C 1.46667 km/h
662 02-06-2019 13:00:00 27.96667 C 12.58 g/m*3 27.97 C 10.35 km/h
663 02-06-2019 14:00:00 29.1 C 13.16 g/m*3 29.1 C 10.75833 km/h
664 02-06-2019 15:00:00 31.04167 C 13.6 g/m*3 31.04 C 10.35833 km/h
665 02-06-2019 16:00:00 32.76667 C 13.1 g/m*3 32.77 C 11.01667 km/h
666 02-06-2019 17:00:00 33.1 C 13.33 g/m*3 33.1 C 8.2 km/h
667 02-06-2019 18:00:00 33 C 13.5 g/m*3 33 C 6.84167 km/h
668 02-06-2019 19:00:00 32.23333 C 13.67 g/m*3 32.23 C 2.675 km/h
669 02-06-2019 20:00:00 28.7 C 13.99 g/m*3 28.7 C 1.2 km/h
670 02-06-2019 21:00:00 24.375 C 12.96 g/m*3 24.38 C 0.8 km/h
671 02-06-2019 22:00:00 21.35833 C 12.7 g/m*3 21.36 C 0.4 km/h
672 02-06-2019 23:00:00 19.30833 C 12.42 g/m*3 19.31 C 0 km/h
673 03-06-2019 00:00:00 17.75833 C 12.09 g/m*3 17.76 C 0 km/h
674 03-06-2019 01:00:00 16.825 C 11.79 g/m*3 16.83 C 0 km/h
675 03-06-2019 02:00:00 16.15 C 11.67 g/m*3 16.15 C 0 km/h
Sensor: Nr:Datum:Temp:Abs-Feuchte:Windchill:Wind:
Aussen-T/F 676 03-06-2019 03:00:00 15.51667 C 11.59 g/m*3 15.52 C 0 km/h
677 03-06-2019 04:00:00 14.84167 C 11.42 g/m*3 14.84 C 0 km/h
678 03-06-2019 05:00:00 14.775 C 11.62 g/m*3 14.78 C 0 km/h
679 03-06-2019 06:00:00 15.23333 C 11.97 g/m*3 15.23 C 0 km/h
680 03-06-2019 07:00:00 16.11667 C 12.57 g/m*3 16.12 C 0 km/h
681 03-06-2019 08:00:00 17.63333 C 13.32 g/m*3 17.63 C 0 km/h
682 03-06-2019 09:00:00 20.30833 C 15 g/m*3 20.31 C 0 km/h
683 03-06-2019 10:00:00 21.325 C 16.16 g/m*3 21.33 C 0 km/h
684 03-06-2019 11:00:00 23.475 C 15.75 g/m*3 23.48 C 3.20833 km/h
685 03-06-2019 12:00:00 26.39167 C 14.87 g/m*3 26.39 C 9.41667 km/h
686 03-06-2019 13:00:00 27.69167 C 14.1 g/m*3 27.69 C 12.75833 km/h
687 03-06-2019 14:00:00 28.44167 C 11.28 g/m*3 28.44 C 16.5 km/h
688 03-06-2019 15:00:00 29.40833 C 10.28 g/m*3 29.41 C 15.83333 km/h
689 03-06-2019 16:00:00 26.71667 C 11.68 g/m*3 26.72 C 5.36667 km/h
690 03-06-2019 17:00:00 25.15833 C 13.45 g/m*3 25.16 C 9.29167 km/h
691 03-06-2019 18:00:00 23.71667 C 13.68 g/m*3 23.72 C 8.75 km/h
692 03-06-2019 19:00:00 22.66667 C 13.73 g/m*3 22.67 C 1.73333 km/h
693 03-06-2019 20:00:00 22.29167 C 13.82 g/m*3 22.29 C 1.46667 km/h
694 03-06-2019 21:00:00 20.63333 C 13.37 g/m*3 20.63 C 0 km/h
695 03-06-2019 22:00:00 19.40833 C 12.98 g/m*3 19.41 C 0 km/h
696 03-06-2019 23:00:00 18.06667 C 12.58 g/m*3 18.07 C 0 km/h
697 04-06-2019 00:00:00 16.71667 C 12.31 g/m*3 16.72 C 0 km/h
698 04-06-2019 01:00:00 15.84167 C 12.11 g/m*3 15.84 C 0 km/h
699 04-06-2019 02:00:00 15.15 C 11.88 g/m*3 15.15 C 0 km/h
700 04-06-2019 03:00:00 14.41667 C 11.5 g/m*3 14.42 C 0 km/h
Sensor: Nr:Datum:Temp:Abs-Feuchte:Windchill:Wind:
Aussen-T/F 701 04-06-2019 04:00:00 13.65833 C 11.04 g/m*3 13.66 C 0 km/h
702 04-06-2019 05:00:00 13.2 C 10.82 g/m*3 13.2 C 0.26667 km/h
703 04-06-2019 06:00:00 13.275 C 10.98 g/m*3 13.28 C 0.13333 km/h
704 04-06-2019 07:00:00 14.525 C 11.83 g/m*3 14.53 C 0 km/h
705 04-06-2019 08:00:00 16.05 C 12.56 g/m*3 16.05 C 1.33333 km/h
706 04-06-2019 09:00:00 17.45 C 13.18 g/m*3 17.45 C 2.13333 km/h
707 04-06-2019 10:00:00 20.16667 C 13.73 g/m*3 20.17 C 7.65 km/h
708 04-06-2019 11:00:00 22.35833 C 14.08 g/m*3 22.36 C 10.1 km/h
709 04-06-2019 12:00:00 23.89167 C 14.74 g/m*3 23.89 C 9.28333 km/h
710 04-06-2019 13:00:00 25.74167 C 14.5 g/m*3 25.74 C 9.00833 km/h
711 04-06-2019 14:00:00 27.4 C 14.36 g/m*3 27.4 C 8.74167 km/h
712 04-06-2019 15:00:00 28.7 C 14.76 g/m*3 28.7 C 7.36667 km/h
713 04-06-2019 16:00:00 30.56667 C 15.5 g/m*3 30.57 C 7.93333 km/h
714 04-06-2019 17:00:00 31.925 C 14.93 g/m*3 31.93 C 7.375 km/h
715 04-06-2019 18:00:00 31.24167 C 15.37 g/m*3 31.24 C 6.175 km/h
716 04-06-2019 19:00:00 29.25 C 15.99 g/m*3 29.25 C 2.8 km/h
717 04-06-2019 20:00:00 26.51667 C 15.68 g/m*3 26.52 C 0.13333 km/h
718 04-06-2019 21:00:00 23.36667 C 14.2 g/m*3 23.37 C 0 km/h
719 04-06-2019 22:00:00 22.025 C 13.74 g/m*3 22.03 C 0.26667 km/h
720 04-06-2019 23:00:00 22.70833 C 13.11 g/m*3 22.71 C 4.275 km/h
721 05-06-2019 00:00:00 23.28333 C 13.16 g/m*3 23.28 C 3.48333 km/h
722 05-06-2019 01:00:00 21.33333 C 13.06 g/m*3 21.33 C 0 km/h
723 05-06-2019 02:00:00 20.575 C 13.25 g/m*3 20.58 C 0 km/h
724 05-06-2019 03:00:00 19.35 C 12.95 g/m*3 19.35 C 0 km/h
725 05-06-2019 04:00:00 18.80833 C 12.93 g/m*3 18.81 C 0.13333 km/h
Sensor: Nr:Datum:Temp:Abs-Feuchte:Windchill:Wind:
Aussen-T/F 726 05-06-2019 05:00:00 17.44167 C 12.46 g/m*3 17.44 C 2.15 km/h
727 05-06-2019 06:00:00 17.69167 C 12.86 g/m*3 17.69 C 3.475 km/h
728 05-06-2019 07:00:00 17.98333 C 13.29 g/m*3 17.98 C 0 km/h
729 05-06-2019 08:00:00 18.38333 C 13.83 g/m*3 18.38 C 0.26667 km/h
730 05-06-2019 09:00:00 21.025 C 14.02 g/m*3 21.03 C 6.575 km/h
731 05-06-2019 10:00:00 22.73333 C 14.29 g/m*3 22.73 C 3.73333 km/h
732 05-06-2019 11:00:00 23.64167 C 14.14 g/m*3 23.64 C 3.46667 km/h
733 05-06-2019 12:00:00 24.34167 C 14.03 g/m*3 24.34 C 4.81667 km/h
734 05-06-2019 13:00:00 25.925 C 14.59 g/m*3 25.93 C 8.05833 km/h
735 05-06-2019 14:00:00 27.25833 C 14.64 g/m*3 27.26 C 11.16667 km/h
736 05-06-2019 15:00:00 29.5 C 14.63 g/m*3 29.5 C 9.41667 km/h
737 05-06-2019 16:00:00 31.35 C 13.61 g/m*3 31.35 C 6.575 km/h
738 05-06-2019 17:00:00 30.43333 C 14.51 g/m*3 30.43 C 3.46667 km/h
739 05-06-2019 18:00:00 28.60833 C 15.79 g/m*3 28.61 C 0 km/h
740 05-06-2019 19:00:00 29.73333 C 16.34 g/m*3 29.73 C 0 km/h
741 05-06-2019 20:00:00 27.55833 C 15.02 g/m*3 27.56 C 0 km/h
742 05-06-2019 21:00:00 23.44167 C 14.4 g/m*3 23.44 C 0 km/h
743 05-06-2019 22:00:00 21.625 C 14.37 g/m*3 21.63 C 0 km/h
744 05-06-2019 23:00:00 20.83333 C 14.01 g/m*3 20.83 C 0 km/h

Maximal/Minimal-Werte vom 11.05.2019 - 13.06.2019

Sensor Min Max Avg
Temp
(Aussen-T/F)
2.2 °C
13-05-2019  06:50:00
33.4 °C
02-06-2019  17:30:00
15.41 °C

Die Daten stammen von einer Davis Vantage Pro 2 Wetter-Station und werden unter Linux mit der Software wview2wettercgi und aufbereitet. Alle Angaben erfolgen ohne Gewähr für ihre Vollständigkeit oder Richtigkeit.
Kontakt: Rainer Krienke krienke@uni-koblenz.de . Meine Webseiten an der Uni Koblenz oder privat.
Version: $Revision: 0.78 $